createdAt,value
2018-10-19T00:00:51.165Z,38.80
2018-10-19T00:03:19.606Z,39.23
2018-10-19T00:05:47.945Z,41.47
2018-10-19T00:08:16.569Z,40.97
2018-10-19T00:10:44.882Z,43.97
2018-10-19T00:13:13.185Z,42.83
2018-10-19T00:15:41.490Z,40.47
2018-10-19T00:18:09.859Z,42.23
2018-10-19T00:20:38.204Z,41.60
2018-10-19T00:23:06.682Z,41.73
2018-10-19T00:25:34.936Z,42.17
2018-10-19T00:28:03.303Z,42.70
2018-10-19T00:30:32.086Z,42.77
2018-10-19T00:33:00.453Z,41.97
2018-10-19T00:35:28.783Z,40.97
2018-10-19T00:37:57.192Z,41.73
2018-10-19T00:40:25.506Z,41.43
2018-10-19T00:42:53.813Z,43.30
2018-10-19T00:45:52.810Z,43.93
2018-10-19T00:48:21.348Z,44.87
2018-10-19T00:50:49.643Z,47.63
2018-10-19T00:53:21.416Z,46.93
2018-10-19T00:55:49.718Z,47.53
2018-10-19T00:58:18.016Z,46.37
2018-10-19T01:00:46.405Z,47.50
2018-10-19T01:03:14.788Z,48.27
2018-10-19T01:05:43.056Z,47.77
2018-10-19T01:08:11.640Z,48.00
2018-10-19T01:10:40.017Z,48.50
2018-10-19T01:13:08.402Z,49.73
2018-10-19T01:15:36.708Z,50.20
2018-10-19T01:18:05.232Z,50.30
2018-10-19T01:20:33.544Z,51.93
2018-10-19T01:23:01.900Z,49.50
2018-10-19T01:25:30.206Z,48.87
2018-10-19T01:27:58.593Z,50.17
2018-10-19T01:30:26.900Z,51.70
2018-10-19T01:32:55.203Z,47.83
2018-10-19T01:35:23.661Z,51.63
2018-10-19T01:37:51.998Z,53.40
2018-10-19T01:40:20.299Z,52.73
2018-10-19T01:42:48.655Z,52.20
2018-10-19T01:45:16.955Z,54.40
2018-10-19T01:47:45.281Z,57.10
2018-10-19T01:50:13.565Z,55.70
2018-10-19T01:52:42.022Z,54.30
2018-10-19T01:55:10.321Z,56.00
2018-10-19T01:57:38.650Z,55.23
2018-10-19T02:00:07.518Z,55.70
2018-10-19T02:02:35.902Z,52.90
2018-10-19T02:05:04.407Z,54.50
2018-10-19T02:07:32.661Z,54.17
2018-10-19T02:10:00.985Z,54.80
2018-10-19T02:12:29.436Z,54.50
2018-10-19T02:14:57.887Z,55.90
2018-10-19T02:17:26.404Z,55.80
2018-10-19T02:20:01.003Z,54.87
2018-10-19T02:22:30.181Z,57.73
2018-10-19T02:24:58.593Z,57.67
2018-10-19T02:27:26.988Z,58.37
2018-10-19T02:29:55.320Z,57.67
2018-10-19T02:32:23.622Z,59.00
2018-10-19T02:34:51.868Z,61.83
2018-10-19T02:37:20.187Z,61.23
2018-10-19T02:39:48.511Z,59.80
2018-10-19T02:42:16.904Z,62.73
2018-10-19T02:44:45.127Z,62.47
2018-10-19T02:47:13.559Z,62.17
2018-10-19T02:49:41.860Z,58.33
2018-10-19T02:52:10.195Z,58.43
2018-10-19T02:54:38.471Z,59.03
2018-10-19T02:57:07.370Z,57.70
2018-10-19T02:59:35.740Z,58.77
2018-10-19T03:02:04.224Z,59.47
2018-10-19T03:04:32.566Z,60.43
2018-10-19T03:07:01.577Z,57.73
2018-10-19T03:09:30.052Z,55.93
2018-10-19T03:11:58.463Z,59.33
2018-10-19T03:14:26.957Z,60.20
2018-10-19T03:16:55.246Z,61.70
2018-10-19T03:19:24.293Z,63.00
2018-10-19T03:21:52.654Z,63.97
2018-10-19T03:24:21.444Z,64.17
2018-10-19T03:26:49.741Z,63.57
2018-10-19T03:29:18.114Z,61.23
2018-10-19T03:31:46.344Z,66.37
2018-10-19T03:34:14.640Z,58.87
2018-10-19T03:36:42.903Z,59.93
2018-10-19T03:39:11.299Z,62.63
2018-10-19T03:41:39.581Z,62.03
2018-10-19T03:44:07.942Z,62.43
2018-10-19T03:46:36.666Z,62.13
2018-10-19T03:49:05.524Z,61.03
2018-10-19T03:51:33.924Z,64.60
2018-10-19T03:54:02.440Z,63.00
2018-10-19T03:56:30.730Z,64.27
2018-10-19T03:58:59.012Z,68.50
2018-10-19T04:01:27.614Z,67.93
2018-10-19T04:03:56.022Z,67.43
2018-10-19T04:06:24.603Z,68.60
2018-10-19T04:08:52.932Z,71.87
2018-10-19T04:11:21.204Z,72.50
2018-10-19T04:13:49.506Z,68.97
2018-10-19T04:16:18.011Z,72.50
2018-10-19T04:18:46.423Z,72.00
2018-10-19T04:21:14.953Z,71.93
2018-10-19T04:23:43.416Z,71.07
2018-10-19T04:26:11.757Z,70.67
2018-10-19T04:28:40.066Z,68.97
2018-10-19T04:31:08.575Z,68.57
2018-10-19T04:33:37.230Z,73.20
2018-10-19T04:36:05.879Z,70.27
2018-10-19T04:38:34.194Z,70.30
2018-10-19T04:41:02.567Z,73.73
2018-10-19T04:43:31.204Z,73.63
2018-10-19T04:45:59.706Z,72.10
2018-10-19T04:48:28.111Z,69.67
2018-10-19T04:50:56.493Z,72.83
2018-10-19T04:53:24.727Z,75.27
2018-10-19T04:55:53.063Z,76.23
2018-10-19T04:58:21.432Z,76.53
2018-10-19T05:00:49.660Z,75.73
2018-10-19T05:03:18.077Z,72.87
2018-10-19T05:05:46.366Z,75.00
2018-10-19T05:08:14.759Z,75.80
2018-10-19T05:10:43.302Z,82.87
2018-10-19T05:13:11.653Z,77.80
2018-10-19T05:15:39.897Z,78.70
2018-10-19T05:18:08.428Z,77.77
2018-10-19T05:20:36.871Z,74.53
2018-10-19T05:23:05.590Z,76.00
2018-10-19T05:25:33.971Z,75.50
2018-10-19T05:28:02.191Z,74.43
2018-10-19T05:30:30.510Z,73.73
2018-10-19T05:32:58.863Z,75.43
2018-10-19T05:35:27.080Z,75.57
2018-10-19T05:37:55.363Z,77.07
2018-10-19T05:40:23.831Z,79.27
2018-10-19T05:42:52.268Z,83.40
2018-10-19T05:45:20.697Z,71.77
2018-10-19T05:47:49.009Z,74.20
2018-10-19T05:50:17.475Z,68.93
2018-10-19T05:52:46.860Z,66.83
2018-10-19T05:55:15.252Z,67.93
2018-10-19T05:57:43.587Z,71.33
2018-10-19T06:00:12.651Z,76.80
2018-10-19T06:02:41.142Z,67.77
2018-10-19T06:05:09.994Z,70.77
2018-10-19T06:07:38.218Z,70.50
2018-10-19T06:10:07.268Z,93.03
2018-10-19T06:12:35.702Z,71.90
2018-10-19T06:15:04.395Z,72.23
2018-10-19T06:17:32.783Z,70.77
2018-10-19T06:20:01.569Z,75.23
2018-10-19T06:22:29.760Z,73.60
2018-10-19T06:24:58.259Z,70.17
2018-10-19T06:27:26.627Z,72.77
2018-10-19T06:29:55.005Z,72.50
2018-10-19T06:32:23.375Z,76.17
2018-10-19T06:34:51.674Z,72.13
2018-10-19T06:37:19.987Z,71.60
2018-10-19T06:39:48.524Z,75.57
2018-10-19T06:42:18.030Z,66.47
2018-10-19T06:44:46.376Z,63.47
2018-10-19T06:47:14.791Z,63.50
2018-10-19T06:49:43.125Z,65.17
2018-10-19T06:52:11.339Z,65.33
2018-10-19T06:54:39.679Z,66.53
2018-10-19T06:57:07.944Z,68.57
2018-10-19T06:59:36.422Z,65.53
2018-10-19T07:02:04.975Z,65.13
2018-10-19T07:04:33.302Z,68.33
2018-10-19T07:07:01.643Z,65.47
2018-10-19T07:09:30.014Z,64.87
2018-10-19T07:11:58.329Z,62.23
2018-10-19T07:14:26.646Z,63.77
2018-10-19T07:16:54.919Z,63.77
2018-10-19T07:19:23.293Z,61.43
2018-10-19T07:21:51.637Z,64.87
2018-10-19T07:24:20.058Z,65.23
2018-10-19T07:26:48.363Z,65.13
2018-10-19T07:29:16.865Z,64.43
2018-10-19T07:31:45.168Z,68.60
2018-10-19T07:34:13.480Z,74.03
2018-10-19T07:36:42.238Z,61.57
2018-10-19T07:39:10.695Z,54.87
2018-10-19T07:41:39.085Z,52.60
2018-10-19T07:44:07.741Z,52.67
2018-10-19T07:46:36.190Z,56.43
2018-10-19T07:49:04.583Z,55.30
2018-10-19T07:51:32.907Z,55.20
2018-10-19T07:54:01.502Z,54.73
2018-10-19T07:56:29.776Z,51.67
2018-10-19T07:58:58.072Z,51.70
2018-10-19T08:01:26.384Z,55.13
2018-10-19T08:03:54.677Z,53.93
2018-10-19T08:06:23.037Z,54.20
2018-10-19T08:08:51.349Z,52.77
2018-10-19T08:11:19.765Z,55.07
2018-10-19T08:13:48.091Z,54.93
2018-10-19T08:16:17.102Z,52.03
2018-10-19T08:18:45.510Z,53.90
2018-10-19T08:21:14.013Z,54.70
2018-10-19T08:23:42.253Z,62.47
2018-10-19T08:26:10.577Z,52.33
2018-10-19T08:28:38.839Z,53.57
2018-10-19T08:31:07.445Z,52.93
2018-10-19T08:33:35.717Z,54.97
2018-10-19T08:36:04.381Z,52.77
2018-10-19T08:38:32.830Z,56.20
2018-10-19T08:41:01.237Z,54.47
2018-10-19T08:43:31.064Z,55.00
2018-10-19T08:46:03.687Z,57.37
2018-10-19T08:48:32.133Z,56.23
2018-10-19T08:51:00.552Z,56.27
2018-10-19T08:53:29.236Z,56.20
2018-10-19T08:55:57.658Z,55.70
2018-10-19T08:58:26.202Z,55.50
2018-10-19T09:00:54.356Z,53.77
2018-10-19T09:03:22.663Z,54.27
2018-10-19T09:05:51.039Z,54.90
2018-10-19T09:08:19.326Z,56.73
2018-10-19T09:10:47.590Z,52.53
2018-10-19T09:13:15.923Z,55.17
2018-10-19T09:15:45.321Z,54.67
2018-10-19T09:18:13.868Z,54.10
2018-10-19T09:20:42.275Z,54.53
2018-10-19T09:23:12.837Z,54.87
2018-10-19T09:25:41.126Z,58.40
2018-10-19T09:28:09.608Z,54.30
2018-10-19T09:30:37.939Z,56.97
2018-10-19T09:33:06.752Z,54.90
2018-10-19T09:35:38.843Z,57.10
2018-10-19T09:38:07.249Z,55.73
2018-10-19T09:40:35.567Z,56.27
2018-10-19T09:43:04.124Z,56.27
2018-10-19T09:45:32.581Z,55.33
2018-10-19T09:48:00.992Z,57.93
2018-10-19T09:50:29.313Z,55.63
2018-10-19T09:52:57.668Z,55.27
2018-10-19T09:55:25.960Z,55.80
2018-10-19T09:57:54.470Z,55.23
2018-10-19T10:00:28.048Z,55.70
2018-10-19T10:02:56.532Z,54.33
2018-10-19T10:05:24.931Z,53.23
2018-10-19T10:07:53.611Z,45.90
2018-10-19T10:10:24.547Z,56.10
2018-10-19T10:12:53.163Z,56.03
2018-10-19T10:15:21.759Z,54.30
2018-10-19T10:17:50.065Z,56.17
2018-10-19T10:20:19.334Z,55.73
2018-10-19T10:22:47.823Z,52.70
2018-10-19T10:25:16.153Z,54.43
2018-10-19T10:27:44.481Z,54.80
2018-10-19T10:30:12.885Z,53.63
2018-10-19T10:32:41.830Z,54.63
2018-10-19T10:35:10.507Z,54.90
2018-10-19T10:37:38.993Z,53.73
2018-10-19T10:40:07.726Z,54.67
2018-10-19T10:42:36.020Z,52.23
2018-10-19T10:45:04.552Z,53.33
2018-10-19T10:47:32.962Z,54.90
2018-10-19T10:50:01.935Z,53.97
2018-10-19T10:52:30.296Z,53.00
2018-10-19T10:54:58.674Z,52.87
2018-10-19T10:57:26.955Z,55.00
2018-10-19T10:59:55.328Z,54.33
2018-10-19T11:02:23.697Z,53.97
2018-10-19T11:04:52.094Z,53.00
2018-10-19T11:07:20.664Z,55.23
2018-10-19T11:09:48.782Z,55.57
2018-10-19T11:12:17.121Z,50.97
2018-10-19T11:14:45.489Z,54.03
2018-10-19T11:17:13.844Z,50.67
2018-10-19T11:19:43.127Z,52.63
2018-10-19T11:22:11.532Z,46.70
2018-10-19T11:24:39.864Z,52.43
2018-10-19T11:27:08.193Z,52.27
2018-10-19T11:29:36.812Z,51.10
2018-10-19T11:32:06.105Z,54.13
2018-10-19T11:34:34.597Z,52.20
2018-10-19T11:37:03.449Z,53.47
2018-10-19T11:39:31.751Z,52.70
2018-10-19T11:42:00.021Z,53.03
2018-10-19T11:44:28.453Z,51.77
2018-10-19T11:47:00.029Z,51.30
2018-10-19T11:49:28.951Z,50.40
2018-10-19T11:51:57.304Z,42.53
2018-10-19T11:54:25.659Z,47.00
2018-10-19T11:56:53.936Z,44.17
2018-10-19T11:59:22.546Z,45.50
2018-10-19T12:01:50.905Z,50.57
2018-10-19T12:04:19.368Z,49.63
2018-10-19T12:06:47.898Z,47.80
2018-10-19T12:09:16.402Z,48.93
2018-10-19T12:11:44.765Z,45.07
2018-10-19T12:14:13.239Z,44.07
2018-10-19T12:16:41.724Z,46.13
2018-10-19T12:19:10.163Z,46.50
2018-10-19T12:21:40.949Z,50.90
2018-10-19T12:24:09.548Z,46.77
2018-10-19T12:26:38.063Z,46.43
2018-10-19T12:29:06.434Z,49.33
2018-10-19T12:31:35.310Z,49.80
2018-10-19T12:34:04.091Z,48.83
2018-10-19T12:36:34.393Z,47.73
2018-10-19T12:39:02.866Z,45.98
2018-10-19T12:41:31.335Z,49.18
2018-10-19T12:43:59.688Z,53.38
2018-10-19T12:46:40.502Z,47.53
2018-10-19T12:49:09.431Z,46.95
2018-10-19T12:51:38.123Z,50.43
2018-10-19T12:54:06.870Z,49.15
2018-10-19T12:56:35.428Z,51.83
2018-10-19T12:59:03.933Z,48.28
2018-10-19T13:01:33.412Z,50.67
2018-10-19T13:04:02.478Z,48.25
2018-10-19T13:06:30.913Z,43.65
2018-10-19T13:08:59.501Z,47.55
2018-10-19T13:11:28.160Z,41.50
2018-10-19T13:13:56.585Z,43.80
2018-10-19T13:16:25.065Z,46.80
2018-10-19T13:18:53.690Z,43.17
2018-10-19T13:21:22.231Z,45.52
2018-10-19T13:23:50.627Z,42.03
2018-10-19T13:26:19.069Z,44.30
2018-10-19T13:28:47.407Z,44.25
2018-10-19T13:31:15.891Z,44.30
2018-10-19T13:33:44.207Z,52.75
2018-10-19T13:36:12.703Z,44.83
2018-10-19T13:38:41.015Z,43.78
2018-10-19T13:41:09.431Z,43.87
2018-10-19T13:43:38.158Z,45.45
2018-10-19T13:46:06.495Z,45.25
2018-10-19T13:48:35.130Z,40.65
2018-10-19T13:51:03.507Z,43.68
2018-10-19T13:53:31.856Z,47.15
2018-10-19T13:56:00.257Z,45.35
2018-10-19T13:58:28.785Z,45.35
2018-10-19T14:00:57.178Z,47.50
2018-10-19T14:03:25.618Z,45.58
2018-10-19T14:05:54.048Z,47.53
2018-10-19T14:08:22.408Z,38.98
2018-10-19T14:10:50.853Z,42.25
2018-10-19T14:13:19.328Z,45.08
2018-10-19T14:15:47.933Z,49.27
2018-10-19T14:18:16.293Z,44.35
2018-10-19T14:20:44.608Z,43.65
2018-10-19T14:23:12.952Z,37.33
2018-10-19T14:25:41.739Z,48.87
2018-10-19T14:28:10.090Z,48.28
2018-10-19T14:30:38.504Z,45.78
2018-10-19T14:33:06.904Z,44.98
2018-10-19T14:35:35.270Z,47.25
2018-10-19T14:38:04.092Z,46.58
2018-10-19T14:40:32.570Z,43.20
2018-10-19T14:43:01.096Z,42.43
2018-10-19T14:45:29.529Z,46.23
2018-10-19T14:47:57.983Z,46.98
2018-10-19T14:50:26.332Z,48.63
2018-10-19T14:52:54.709Z,46.65
2018-10-19T14:55:23.282Z,46.98
2018-10-19T14:57:51.604Z,47.38
2018-10-19T15:00:20.032Z,46.02
2018-10-19T15:02:48.428Z,44.83
2018-10-19T15:05:18.348Z,49.00
2018-10-19T15:07:46.822Z,46.37
2018-10-19T15:10:17.997Z,46.68
2018-10-19T15:12:46.378Z,45.78
2018-10-19T15:15:22.439Z,41.23
2018-10-19T15:17:50.907Z,47.70
2018-10-19T15:20:19.543Z,46.65
2018-10-19T15:22:48.093Z,38.98
2018-10-19T15:25:16.479Z,45.95
2018-10-19T15:27:45.936Z,45.40
2018-10-19T15:30:16.993Z,46.40
2018-10-19T15:32:45.350Z,43.42
2018-10-19T15:35:13.605Z,33.07
2018-10-19T15:37:42.178Z,34.07
2018-10-19T15:40:11.172Z,40.87
2018-10-19T15:42:39.948Z,41.37
2018-10-19T15:45:10.145Z,42.63
2018-10-19T15:47:38.446Z,35.20
2018-10-19T15:50:07.573Z,41.67
2018-10-19T15:52:35.907Z,42.13
2018-10-19T15:55:04.437Z,43.20
2018-10-19T15:57:32.823Z,42.20
2018-10-19T16:00:01.190Z,42.60
2018-10-19T16:02:29.408Z,43.67
2018-10-19T16:04:57.862Z,42.83
2018-10-19T16:07:26.201Z,42.13
2018-10-19T16:09:54.867Z,45.23
2018-10-19T16:12:23.149Z,46.40
2018-10-19T16:14:51.561Z,44.07
2018-10-19T16:17:19.989Z,43.13
2018-10-19T16:19:49.000Z,44.43
2018-10-19T16:22:17.333Z,44.13
2018-10-19T16:24:45.659Z,49.33
2018-10-19T16:27:14.094Z,43.77
2018-10-19T16:29:42.330Z,43.43
2018-10-19T16:32:10.708Z,43.40
2018-10-19T16:34:39.263Z,44.77
2018-10-19T16:37:07.493Z,45.57
2018-10-19T16:39:35.784Z,46.20
2018-10-19T16:42:04.351Z,47.73
2018-10-19T16:44:32.667Z,46.40
2018-10-19T16:47:01.113Z,48.90
2018-10-19T16:49:29.401Z,49.33
2018-10-19T16:51:57.693Z,49.97
2018-10-19T16:54:26.046Z,48.33
2018-10-19T16:56:54.380Z,48.47
2018-10-19T16:59:22.646Z,47.47
2018-10-19T17:01:53.775Z,49.37
2018-10-19T17:04:22.218Z,50.60
2018-10-19T17:06:50.828Z,49.27
2018-10-19T17:09:19.865Z,52.80
2018-10-19T17:11:48.361Z,53.67
2018-10-19T17:14:17.027Z,52.60
2018-10-19T17:16:52.387Z,49.53
2018-10-19T17:19:20.981Z,53.20
2018-10-19T17:21:51.131Z,53.37
2018-10-19T17:24:20.644Z,54.00
2018-10-19T17:26:50.052Z,55.17
2018-10-19T17:29:21.072Z,53.90
2018-10-19T17:31:50.203Z,53.70
2018-10-19T17:34:20.068Z,53.63
2018-10-19T17:36:49.401Z,53.27
2018-10-19T17:39:18.102Z,54.83
2018-10-19T17:41:52.656Z,55.80
2018-10-19T17:44:21.575Z,54.37
2018-10-19T17:46:51.681Z,53.87
2018-10-19T17:49:20.387Z,57.83
2018-10-19T17:51:49.445Z,54.07
2018-10-19T17:54:19.664Z,57.10
2018-10-19T17:56:52.479Z,61.00
2018-10-19T17:59:20.905Z,55.97
2018-10-19T18:01:49.327Z,58.20
2018-10-19T18:04:17.786Z,58.30
2018-10-19T18:06:47.880Z,59.63
2018-10-19T18:09:16.373Z,58.47
2018-10-19T18:11:45.346Z,60.03
2018-10-19T18:14:13.813Z,59.33
2018-10-19T18:16:42.403Z,61.77
2018-10-19T18:19:20.437Z,60.27
2018-10-19T18:21:49.015Z,61.37
2018-10-19T18:24:17.387Z,60.80
2018-10-19T18:26:46.052Z,62.50
2018-10-19T18:29:14.857Z,59.97
2018-10-19T18:31:43.912Z,62.03
2018-10-19T18:34:12.804Z,62.37
2018-10-19T18:36:41.470Z,62.57
2018-10-19T18:39:13.081Z,67.20
2018-10-19T18:41:42.476Z,65.90
2018-10-19T18:44:12.092Z,64.87
2018-10-19T18:46:40.727Z,66.80
2018-10-19T18:49:09.274Z,69.00
2018-10-19T18:51:39.864Z,64.70
2018-10-19T18:54:10.934Z,70.27
2018-10-19T18:56:40.704Z,65.67
2018-10-19T18:59:11.594Z,65.50
2018-10-19T19:01:46.751Z,67.20
2018-10-19T19:04:15.283Z,66.43
2018-10-19T19:06:44.701Z,66.90
2018-10-19T19:09:18.625Z,67.83
2018-10-19T19:11:48.393Z,65.10
2018-10-19T19:14:17.012Z,67.00
2018-10-19T19:16:45.927Z,68.37
2018-10-19T19:19:16.248Z,67.37
2018-10-19T19:21:48.770Z,68.73
2018-10-19T19:24:23.417Z,67.30
2018-10-19T19:26:52.008Z,65.97
2018-10-19T19:29:22.503Z,65.73
2018-10-19T19:31:51.203Z,67.33
2018-10-19T19:34:22.949Z,64.70
2018-10-19T19:36:51.888Z,65.90
2018-10-19T19:39:20.248Z,67.97
2018-10-19T19:41:53.979Z,68.87
2018-10-19T19:44:22.459Z,69.10
2018-10-19T19:46:51.026Z,66.77
2018-10-19T19:49:24.938Z,70.93
2018-10-19T19:51:53.643Z,68.73
2018-10-19T19:54:22.171Z,74.87
2018-10-19T19:56:50.889Z,73.83
2018-10-19T19:59:20.802Z,69.80
2018-10-19T20:01:50.353Z,73.00
2018-10-19T20:04:19.005Z,72.60
2018-10-19T20:06:48.197Z,77.57
2018-10-19T20:09:17.029Z,75.77
2018-10-19T20:11:46.315Z,74.83
2018-10-19T20:14:16.058Z,71.03
2018-10-19T20:16:44.916Z,73.03
2018-10-19T20:19:13.526Z,72.57
2018-10-19T20:21:42.560Z,72.37
2018-10-19T20:24:36.942Z,70.50
2018-10-19T20:27:07.050Z,75.07
2018-10-19T20:29:36.704Z,77.30
2018-10-19T20:32:07.107Z,84.00
2018-10-19T20:37:13.089Z,81.80
2018-10-19T20:39:41.547Z,79.77
2018-10-19T20:42:10.250Z,77.97
2018-10-19T20:44:39.600Z,76.23
2018-10-19T20:47:08.122Z,75.73
2018-10-19T20:49:36.662Z,75.23
2018-10-19T20:52:05.153Z,77.83
2018-10-19T20:54:33.785Z,79.50
2018-10-19T20:57:02.054Z,79.27
2018-10-19T20:59:34.150Z,77.50
2018-10-19T21:02:03.583Z,78.07
2018-10-19T21:04:32.164Z,76.67
2018-10-19T21:07:00.568Z,82.43
2018-10-19T21:09:29.169Z,83.73
2018-10-19T21:11:57.514Z,79.83
2018-10-19T21:14:25.873Z,82.27
2018-10-19T21:16:54.496Z,80.07
2018-10-19T21:19:23.001Z,77.40
2018-10-19T21:21:51.495Z,86.60
2018-10-19T21:24:19.865Z,80.17
2018-10-19T21:26:48.190Z,80.90
2018-10-19T21:29:16.677Z,80.07
2018-10-19T21:31:45.339Z,77.57
2018-10-19T21:34:13.766Z,86.63
2018-10-19T21:36:42.618Z,82.43
2018-10-19T21:39:13.123Z,83.17
2018-10-19T21:41:43.521Z,89.27
2018-10-19T21:44:11.983Z,87.67
2018-10-19T21:46:40.322Z,87.33
2018-10-19T21:49:08.650Z,86.40
2018-10-19T21:51:36.986Z,85.77
2018-10-19T21:54:05.822Z,87.70
2018-10-19T21:56:34.290Z,85.43
2018-10-19T21:59:03.031Z,85.80
2018-10-19T22:01:31.982Z,85.23
2018-10-19T22:04:00.495Z,81.57
2018-10-19T22:06:28.917Z,80.83
2018-10-19T22:08:57.256Z,85.70
2018-10-19T22:11:25.668Z,83.83
2018-10-19T22:13:54.115Z,87.37
2018-10-19T22:16:22.990Z,90.80
2018-10-19T22:18:51.496Z,88.77
2018-10-19T22:21:20.153Z,88.60
2018-10-19T22:23:49.388Z,87.30
2018-10-19T22:26:17.827Z,88.90
2018-10-19T22:28:46.151Z,90.10
2018-10-19T22:31:14.588Z,90.77
2018-10-19T22:33:42.968Z,89.07
2018-10-19T22:36:11.299Z,88.53
2018-10-19T22:38:39.790Z,89.30
2018-10-19T22:41:08.498Z,85.70
2018-10-19T22:43:36.788Z,85.53
2018-10-19T22:46:05.175Z,86.13
2018-10-19T22:48:33.544Z,83.83
2018-10-19T22:51:02.200Z,82.63
2018-10-19T22:53:30.484Z,82.37
2018-10-19T22:55:58.825Z,85.97
2018-10-19T22:58:27.131Z,86.17
2018-10-19T23:00:55.578Z,86.07
2018-10-19T23:03:23.907Z,84.03
2018-10-19T23:05:52.238Z,88.03
2018-10-19T23:08:20.556Z,86.17
2018-10-19T23:10:49.679Z,87.30
2018-10-19T23:13:18.007Z,85.87
2018-10-19T23:15:46.315Z,84.17
2018-10-19T23:18:14.609Z,86.30
2018-10-19T23:20:42.972Z,83.77
2018-10-19T23:23:11.378Z,85.10
2018-10-19T23:25:39.696Z,86.87
2018-10-19T23:28:08.065Z,85.60
2018-10-19T23:30:36.424Z,84.33
2018-10-19T23:33:05.588Z,81.60
2018-10-19T23:35:34.040Z,81.37
2018-10-19T23:38:02.419Z,85.40
2018-10-19T23:40:30.834Z,85.13
2018-10-19T23:42:59.187Z,86.97
2018-10-19T23:45:27.732Z,87.67
2018-10-19T23:47:56.011Z,87.57
2018-10-19T23:50:24.337Z,94.23
2018-10-19T23:52:52.678Z,95.93
2018-10-19T23:55:20.890Z,97.07
2018-10-19T23:57:49.240Z,92.23
